createdAt,value
2022-11-29T00:00:16.953Z,97207.09
2022-11-29T00:05:38.873Z,97212.50
2022-11-29T00:10:40.792Z,97216.38
2022-11-29T00:15:44.076Z,97206.63
2022-11-29T00:20:45.955Z,97205.88
2022-11-29T00:25:47.897Z,97202.38
2022-11-29T00:30:51.144Z,97206.25
2022-11-29T00:35:53.198Z,97203.94
2022-11-29T00:40:55.207Z,97207.06
2022-11-29T00:45:58.517Z,97202.53
2022-11-29T00:51:00.814Z,97204.47
2022-11-29T00:56:03.725Z,97216.00
2022-11-29T01:01:07.102Z,97207.91
2022-11-29T01:06:11.745Z,97208.25
2022-11-29T01:11:16.257Z,97210.13
2022-11-29T01:16:20.007Z,97202.47
2022-11-29T01:21:24.120Z,97215.59
2022-11-29T01:26:28.035Z,97206.25
2022-11-29T01:31:35.994Z,97210.81
2022-11-29T01:36:37.985Z,97201.50
2022-11-29T01:41:40.048Z,97203.91
2022-11-29T01:46:44.894Z,97199.78
2022-11-29T01:51:50.439Z,97191.63
2022-11-29T01:56:53.122Z,97187.03
2022-11-29T02:02:03.967Z,97195.88
2022-11-29T02:07:05.967Z,97191.69
2022-11-29T02:12:21.182Z,97186.69
2022-11-29T02:17:33.103Z,97193.94
2022-11-29T02:22:41.599Z,97190.38
2022-11-29T02:28:21.620Z,97191.16
2022-11-29T02:33:50.333Z,97200.09
2022-11-29T02:39:07.943Z,97200.09
2022-11-29T02:44:32.216Z,97200.88
2022-11-29T02:49:53.598Z,97199.19
2022-11-29T02:55:04.417Z,97201.94
2022-11-29T03:00:07.808Z,97212.28
2022-11-29T03:05:18.607Z,97210.47
2022-11-29T03:10:24.882Z,97215.06
2022-11-29T03:15:31.155Z,97225.47
2022-11-29T03:20:45.114Z,97213.50
2022-11-29T03:25:53.507Z,97219.66
2022-11-29T03:31:01.437Z,97224.41
2022-11-29T03:36:11.847Z,97223.97
2022-11-29T03:41:23.403Z,97227.91
2022-11-29T03:46:34.917Z,97225.47
2022-11-29T03:51:49.663Z,97230.31
2022-11-29T03:56:52.286Z,97242.72
2022-11-29T04:02:12.803Z,97243.38
2022-11-29T04:07:33.878Z,97245.88
2022-11-29T04:12:58.086Z,97249.06
2022-11-29T04:18:25.867Z,97257.72
2022-11-29T04:23:48.514Z,97258.91
2022-11-29T04:29:15.420Z,97248.50
2022-11-29T04:34:34.370Z,97261.94
2022-11-29T04:39:56.255Z,97261.41
2022-11-29T04:45:22.928Z,97265.94
2022-11-29T04:50:40.387Z,97265.06
2022-11-29T04:55:51.072Z,97280.47
2022-11-29T05:00:59.571Z,97283.63
2022-11-29T05:06:19.716Z,97286.06
2022-11-29T05:11:34.455Z,97287.16
2022-11-29T05:16:48.903Z,97287.56
2022-11-29T05:22:00.985Z,97282.72
2022-11-29T05:27:14.150Z,97276.22
2022-11-29T05:32:28.537Z,97285.44
2022-11-29T05:37:43.154Z,97294.13
2022-11-29T05:43:05.423Z,97301.28
2022-11-29T05:48:17.599Z,97303.91
2022-11-29T05:53:24.673Z,97300.03
2022-11-29T05:58:46.381Z,97311.72
2022-11-29T06:03:56.653Z,97323.22
2022-11-29T06:09:06.247Z,97330.31
2022-11-29T06:14:20.086Z,97322.84
2022-11-29T06:19:37.524Z,97328.25
2022-11-29T06:24:50.461Z,97329.66
2022-11-29T06:30:02.327Z,97324.16
2022-11-29T06:35:11.217Z,97325.41
2022-11-29T06:40:15.879Z,97324.53
2022-11-29T06:45:21.765Z,97333.38
2022-11-29T06:50:38.293Z,97335.72
2022-11-29T06:55:48.677Z,97334.28
2022-11-29T07:01:00.686Z,97346.63
2022-11-29T07:06:10.143Z,97340.75
2022-11-29T07:11:14.204Z,97354.34
2022-11-29T07:16:25.841Z,97342.78
2022-11-29T07:21:44.158Z,97351.84
2022-11-29T07:26:59.606Z,97373.81
2022-11-29T07:32:12.836Z,97359.34
2022-11-29T07:37:24.315Z,97362.44
2022-11-29T07:42:37.724Z,97364.78
2022-11-29T07:47:41.018Z,97362.88
2022-11-29T07:52:46.210Z,97374.47
2022-11-29T07:57:49.159Z,97365.06
2022-11-29T08:02:52.457Z,97373.13
2022-11-29T08:07:55.881Z,97382.34
2022-11-29T08:12:57.882Z,97379.19
2022-11-29T08:18:01.838Z,97374.44
2022-11-29T08:23:03.871Z,97382.78
2022-11-29T08:28:06.207Z,97382.25
2022-11-29T08:33:09.465Z,97384.75
2022-11-29T08:38:11.371Z,97387.22
2022-11-29T08:43:13.371Z,97393.38
2022-11-29T08:48:16.616Z,97386.25
2022-11-29T08:53:37.288Z,97386.22
2022-11-29T08:58:40.167Z,97390.16
2022-11-29T09:03:59.955Z,97385.63
2022-11-29T09:09:01.971Z,97387.16
2022-11-29T09:14:06.362Z,97381.94
2022-11-29T09:19:10.157Z,97380.00
2022-11-29T09:24:12.085Z,97387.25
2022-11-29T09:29:15.910Z,97377.94
2022-11-29T09:34:19.077Z,97384.00
2022-11-29T09:39:21.072Z,97373.78
2022-11-29T09:44:38.348Z,97364.63
2022-11-29T09:49:52.049Z,97366.97
2022-11-29T09:55:04.062Z,97364.81
2022-11-29T10:00:15.713Z,97368.66
2022-11-29T10:05:24.115Z,97361.28
2022-11-29T10:10:31.016Z,97365.69
2022-11-29T10:15:38.561Z,97364.09
2022-11-29T10:20:48.795Z,97358.41
2022-11-29T10:25:53.724Z,97362.53
2022-11-29T10:31:16.293Z,97362.72
2022-11-29T10:36:23.833Z,97363.97
2022-11-29T10:41:26.865Z,97369.94
2022-11-29T10:46:33.031Z,97364.81
2022-11-29T10:51:36.740Z,97361.94
2022-11-29T10:56:39.361Z,97354.69
2022-11-29T11:01:43.111Z,97353.66
2022-11-29T11:06:51.424Z,97351.00
2022-11-29T11:11:55.654Z,97345.69
2022-11-29T11:17:15.413Z,97348.66
2022-11-29T11:22:23.148Z,97354.41
2022-11-29T11:27:34.026Z,97358.50
2022-11-29T11:32:36.952Z,97352.53
2022-11-29T11:37:40.255Z,97353.56
2022-11-29T11:42:44.154Z,97358.09
2022-11-29T11:47:49.189Z,97354.28
2022-11-29T11:52:55.698Z,97349.78
2022-11-29T11:58:03.321Z,97352.44
2022-11-29T12:03:24.897Z,97351.63
2022-11-29T12:08:29.667Z,97358.25
2022-11-29T12:13:35.711Z,97353.03
2022-11-29T12:18:44.113Z,97358.72
2022-11-29T12:23:53.158Z,97366.72
2022-11-29T12:28:55.176Z,97360.00
2022-11-29T12:34:10.013Z,97355.13
2022-11-29T12:39:26.690Z,97356.78
2022-11-29T12:44:39.500Z,97361.22
2022-11-29T12:50:04.790Z,97363.47
2022-11-29T12:55:19.745Z,97364.47
2022-11-29T13:00:22.697Z,97359.38
2022-11-29T13:05:43.406Z,97367.00
2022-11-29T13:10:58.048Z,97372.97
2022-11-29T13:16:05.845Z,97381.91
2022-11-29T13:21:13.635Z,97395.19
2022-11-29T13:26:18.636Z,97394.28
2022-11-29T13:31:22.627Z,97400.19
2022-11-29T13:36:34.457Z,97394.84
2022-11-29T13:41:45.699Z,97400.38
2022-11-29T13:46:57.548Z,97400.53
2022-11-29T13:52:05.219Z,97410.63
2022-11-29T13:57:09.961Z,97410.44
2022-11-29T14:02:28.235Z,97412.47
2022-11-29T14:07:30.279Z,97414.16
2022-11-29T14:12:38.367Z,97408.09
2022-11-29T14:17:50.449Z,97415.28
2022-11-29T14:23:13.940Z,97413.84
2022-11-29T14:28:41.393Z,97422.56
2022-11-29T14:34:01.121Z,97428.94
2022-11-29T14:39:20.343Z,97425.16
2022-11-29T15:10:57.097Z,97451.25
2022-11-29T15:16:14.342Z,97445.44
2022-11-29T15:21:31.068Z,97448.94
2022-11-29T15:26:34.795Z,97450.88
2022-11-29T15:31:37.295Z,97451.63
2022-11-29T15:36:43.174Z,97457.06
2022-11-29T15:41:46.474Z,97454.72
2022-11-29T15:46:48.546Z,97459.38
2022-11-29T15:51:55.892Z,97460.56
2022-11-29T15:57:02.478Z,97466.66
2022-11-29T16:02:15.702Z,97464.78
2022-11-29T16:07:20.391Z,97465.59
2022-11-29T16:12:24.842Z,97465.59
2022-11-29T16:17:28.863Z,97471.00
2022-11-29T16:22:32.141Z,97472.94
2022-11-29T16:27:36.356Z,97473.66
2022-11-29T16:32:42.345Z,97471.75
2022-11-29T16:37:46.195Z,97479.44
2022-11-29T16:43:06.439Z,97478.38
2022-11-29T16:48:28.728Z,97479.56
2022-11-29T16:53:35.823Z,97479.16
2022-11-29T16:59:25.064Z,97490.34
2022-11-29T17:04:01.972Z,97493.78
2022-11-29T17:09:04.638Z,97498.91
2022-11-29T17:14:08.219Z,97502.78
2022-11-29T17:19:12.601Z,97502.72
2022-11-29T17:24:17.276Z,97500.34
2022-11-29T17:29:20.653Z,97501.50
2022-11-29T17:34:22.776Z,97510.16
2022-11-29T17:39:24.725Z,97509.78
2022-11-29T17:44:27.985Z,97515.47
2022-11-29T17:49:30.100Z,97522.59
2022-11-29T17:54:35.993Z,97521.97
2022-11-29T17:59:39.289Z,97515.44
2022-11-29T18:04:42.621Z,97519.22
2022-11-29T18:09:45.910Z,97525.16
2022-11-29T18:14:50.843Z,97522.44
2022-11-29T18:19:52.806Z,97526.06
2022-11-29T18:25:05.387Z,97532.75
2022-11-29T18:30:18.269Z,97529.34
2022-11-29T18:35:20.210Z,97522.13
2022-11-29T18:40:22.924Z,97533.75
2022-11-29T18:45:26.356Z,97532.66
2022-11-29T18:50:28.276Z,97527.25
2022-11-29T18:55:30.207Z,97532.31
2022-11-29T19:00:33.798Z,97529.34
2022-11-29T19:05:35.761Z,97529.09
2022-11-29T19:10:38.484Z,97526.06
2022-11-29T19:15:41.869Z,97525.25
2022-11-29T19:20:43.854Z,97532.47
2022-11-29T19:25:45.931Z,97537.44
2022-11-29T19:30:54.995Z,97554.50
2022-11-29T19:35:57.027Z,97553.75
2022-11-29T19:40:59.082Z,97566.72
2022-11-29T19:46:08.408Z,97559.75
2022-11-29T19:51:11.870Z,97560.56
2022-11-29T19:56:15.633Z,97567.81
2022-11-29T20:01:22.781Z,97564.38
2022-11-29T20:06:26.815Z,97577.75
2022-11-29T20:11:29.212Z,97577.00
2022-11-29T20:16:32.948Z,97571.44
2022-11-29T20:21:35.190Z,97573.66
2022-11-29T20:26:39.103Z,97582.03
2022-11-29T20:31:50.148Z,97588.22
2022-11-29T20:37:15.639Z,97588.44
2022-11-29T20:42:44.365Z,97587.09
2022-11-29T20:47:54.273Z,97583.28
2022-11-29T20:53:13.143Z,97582.84
2022-11-29T20:58:15.391Z,97585.84
2022-11-29T21:03:20.119Z,97589.28
2022-11-29T21:08:24.823Z,97589.03
2022-11-29T21:13:27.298Z,97587.50
2022-11-29T21:18:32.357Z,97585.66
2022-11-29T21:23:51.936Z,97596.91
2022-11-29T21:29:04.577Z,97588.88
2022-11-29T21:34:08.737Z,97596.69
2022-11-29T21:39:14.751Z,97595.06
2022-11-29T21:44:16.724Z,97590.31
2022-11-29T21:49:19.996Z,97596.09
2022-11-29T21:54:21.905Z,97598.53
2022-11-29T21:59:27.969Z,97602.09
2022-11-29T22:04:31.262Z,97591.31
2022-11-29T22:09:33.249Z,97595.06
2022-11-29T22:14:35.191Z,97591.69
2022-11-29T22:19:39.412Z,97601.03
2022-11-29T22:24:41.391Z,97605.53
2022-11-29T22:29:43.435Z,97596.09
2022-11-29T22:34:46.984Z,97603.16
2022-11-29T22:39:49.376Z,97596.84
2022-11-29T22:44:51.778Z,97589.97
2022-11-29T22:49:55.057Z,97588.56
2022-11-29T22:55:02.902Z,97593.47
2022-11-29T23:00:08.000Z,97596.34
2022-11-29T23:05:11.283Z,97597.66
2022-11-29T23:10:13.205Z,97601.09
2022-11-29T23:15:15.335Z,97595.69
2022-11-29T23:20:18.607Z,97604.94
2022-11-29T23:25:20.503Z,97595.88
2022-11-29T23:30:22.449Z,97592.06
2022-11-29T23:35:25.768Z,97598.25
2022-11-29T23:40:27.784Z,97598.16
2022-11-29T23:45:29.736Z,97594.66
2022-11-29T23:50:33.227Z,97590.59
2022-11-29T23:55:35.165Z,97592.31
